Flight Track Log - Related Links

Times and Time Zones

All times are in EDT time to prevent confusion due to time zone crossing. See the TAM3884 flight status page for this flight to view local times or setup timezone preferences in your user account.

Time Position Orientation Groundspeed Altitude Reporting Facility
EDT Latitude Longitude Course Direction KTS MPH feet Rate Location/Type
Mon 06:03:00 AM -22.0658 -47.2415 354° North  Level Estimated
Mon 06:04:00 AM -21.9872 -47.2503 354° North  Level Estimated
Mon 06:05:00 AM -21.9087 -47.2591 354° North  Level Estimated
Mon 06:06:00 AM -21.8302 -47.2679 354° North  Level Estimated
Mon 06:07:00 AM -21.7516 -47.2767 354° North  Level Estimated
Mon 06:08:00 AM -21.6731 -47.2855 354° North  Level Estimated
Mon 06:09:00 AM -21.5945 -47.2943 354° North  Level Estimated
Mon 06:10:00 AM -21.5160 -47.3031 354° North  Level Estimated
Mon 06:11:00 AM -21.4375 -47.3119 354° North  Level Estimated
Mon 06:12:00 AM -21.3589 -47.3206 354° North  Level Estimated
Mon 06:13:00 AM -21.2804 -47.3294 354° North  Level Estimated
Mon 06:14:00 AM -21.2018 -47.3381 354° North  Level Estimated
Mon 06:15:00 AM -21.1233 -47.3469 354° North  Level Estimated
Mon 06:16:00 AM -21.0448 -47.3556 354° North  Level Estimated
Mon 06:17:00 AM -20.9662 -47.3643 354° North  Level Estimated
Mon 06:18:00 AM -20.8877 -47.3730 354° North  Level Estimated
Mon 06:19:00 AM -20.8091 -47.3817 354° North  Level Estimated
Mon 06:20:00 AM -20.7306 -47.3904 354° North  Level Estimated
Mon 06:21:00 AM -20.6521 -47.3990 354° North  Level Estimated
Mon 06:22:00 AM -20.5735 -47.4077 354° North  Level Estimated
Mon 06:23:00 AM -20.4950 -47.4164 354° North  Level Estimated
Mon 06:24:00 AM -20.4164 -47.4250 354° North  Level Estimated
Mon 06:25:00 AM -20.3379 -47.4337 354° North  Level Estimated
Mon 06:26:00 AM -20.2593 -47.4423 354° North  Level Estimated
Mon 06:27:00 AM -20.1808 -47.4509 354° North  Level Estimated
Mon 06:28:00 AM -20.1022 -47.4595 354° North  Level Estimated
Mon 06:29:00 AM -20.0237 -47.4681 354° North  Level Estimated
Mon 06:30:00 AM -19.9451 -47.4767 354° North  Level Estimated
Mon 06:31:00 AM -19.8666 -47.4853 354° North  Level Estimated
Mon 06:32:00 AM -19.7880 -47.4939 354° North  Level Estimated
Mon 06:33:00 AM -19.7095 -47.5024 354° North  Level Estimated
Mon 06:34:00 AM -19.6309 -47.5110 354° North  Level Estimated
Mon 06:35:00 AM -19.5524 -47.5196 354° North  Level Estimated
Mon 06:36:00 AM -19.4738 -47.5281 354° North  Level Estimated
Mon 06:37:00 AM -19.3953 -47.5367 354° North  Level Estimated
Mon 06:38:00 AM -19.3167 -47.5452 354° North  Level Estimated
Mon 06:39:00 AM -19.2382 -47.5537 354° North  Level Estimated
Mon 06:40:00 AM -19.1596 -47.5622 354° North  Level Estimated
Mon 06:41:00 AM -19.0811 -47.5707 354° North  Level Estimated
Mon 06:42:00 AM -19.0025 -47.5792 354° North  Level Estimated
Mon 06:43:00 AM -18.9240 -47.5877 354° North  Level Estimated
Mon 06:44:00 AM -18.8454 -47.5962 354° North  Level Estimated
Mon 06:45:00 AM -18.7669 -47.6046 354° North  Level Estimated
Mon 06:46:00 AM -18.6883 -47.6131 354° North  Level Estimated
Mon 06:47:00 AM -18.6098 -47.6216 354° North  Level Estimated
Mon 06:48:00 AM -18.5312 -47.6300 354° North  Level Estimated
Mon 06:49:00 AM -18.4527 -47.6385 354° North  Level Estimated
Mon 06:50:00 AM -18.3741 -47.6469 354° North  Level Estimated
Mon 06:51:00 AM -18.2956 -47.6553 354° North  Level Estimated
Mon 06:52:00 AM -18.2170 -47.6637 354° North  Level Estimated
Mon 06:53:00 AM -18.1385 -47.6721 354° North  Level Estimated
Mon 06:54:00 AM -18.0599 -47.6805 354° North  Level Estimated
Mon 06:55:00 AM -17.9813 -47.6889 354° North  Level Estimated
Mon 06:56:00 AM -17.9028 -47.6973 354° North  Level Estimated
Mon 06:57:00 AM -17.8242 -47.7057 354° North  Level Estimated
Mon 06:58:00 AM -17.7457 -47.7141 354° North  Level Estimated
Mon 06:59:00 AM -17.6671 -47.7225 354° North  Level Estimated
Mon 07:00:00 AM -17.5885 -47.7308 354° North  Level Estimated
Mon 07:01:00 AM -17.5100 -47.7392 354° North  Level Estimated
Mon 07:02:00 AM -17.4314 -47.7475 354° North  Level Estimated
Mon 07:03:00 AM -17.3529 -47.7558 354° North  Level Estimated
Mon 07:04:00 AM -17.2743 -47.7642 354° North  Level Estimated
Mon 07:05:00 AM -17.1957 -47.7725 354° North  Level Estimated
Mon 07:06:00 AM -17.1172 -47.7808 354° North  Level Estimated
Mon 07:07:00 AM -17.0386 -47.7891 354° North  Level Estimated
Mon 07:08:00 AM -16.9601 -47.7974 354° North  Level Estimated
Mon 07:09:00 AM -16.8815 -47.8057 354° North  Level Estimated
Mon 07:10:00 AM -16.8029 -47.8140 354° North  Level Estimated
Mon 07:11:00 AM -16.7244 -47.8223 354° North  Level Estimated
Mon 07:12:00 AM -16.6458 -47.8306 354° North  Level Estimated
Mon 07:13:00 AM -16.5673 -47.8388 354° North  Level Estimated
Mon 07:14:00 AM -16.4887 -47.8471 354° North  Level Estimated
Mon 07:15:00 AM -16.4101 -47.8553 354° North  Level Estimated
Mon 07:16:00 AM -16.3316 -47.8636 354° North  Level Estimated
Mon 07:17:00 AM -16.2530 -47.8718 354° North  Level Estimated
Mon 07:18:00 AM -16.1745 -47.8801 354° North  Level Estimated
Mon 07:19:00 AM -16.0959 -47.8883 354° North  Level Estimated
Mon 07:20:00 AM -16.0173 -47.8965 354° North  Level Estimated
Mon 07:21:00 AM -15.9388 -47.9047 354° North  Level Estimated
Mon 07:22:00 AM -15.8626 -47.9127 354° North  Level Estimated
Mon 07:23:00 AM -15.8626 -47.9127 128° Southeast  Level Estimated
Mon 07:24:00 AM -15.8626 -47.9127 128° Southeast  Level Estimated
Mon 07:25:00 AM -15.8626 -47.9127 128° Southeast  Level Estimated
Mon 07:26:00 AM -15.8626 -47.9127 128° Southeast  Level Estimated
Mon 07:27:00 AM -15.8626 -47.9127 128° Southeast  Level Estimated
Mon 07:28:00 AM -15.8626 -47.9127 128° Southeast  Level Estimated
Mon 07:29:00 AM -15.8626 -47.9127 128° Southeast  Level Estimated
Mon 07:30:00 AM -15.8626 -47.9127 128° Southeast  Level Estimated
Mon 07:31:00 AM -15.8626 -47.9127 128° Southeast  Level Estimated
Mon 07:32:00 AM -15.8626 -47.9127 128° Southeast  Level Estimated
Mon 07:33:00 AM -15.8626 -47.9127 128° Southeast  Level Estimated
Mon 07:34:00 AM -15.8626 -47.9127 128° Southeast  Level Estimated
Mon 07:35:00 AM -15.8626 -47.9127 128° Southeast  Level Estimated
Mon 07:36:00 AM -15.8626 -47.9127 128° Southeast  Level Estimated
Mon 07:37:00 AM -15.8626 -47.9127 128° Southeast  Level Estimated
Mon 07:38:00 AM -15.8626 -47.9127 128° Southeast  Level Estimated

Login

Don't have an account? Register now (free) for customized features, flight alerts, and more!